sensor_id;sensor_type;location;lat;lon;timestamp;P1;durP1;ratioP1;P2;durP2;ratioP2
28481;SDS011;15703;49.588;6.260;2023-04-21T00:01:52;18.07;;;16.13;;
28481;SDS011;15703;49.588;6.260;2023-04-21T00:04:15;19.33;;;15.87;;
28481;SDS011;15703;49.588;6.260;2023-04-21T00:06:38;20.97;;;16.60;;
28481;SDS011;15703;49.588;6.260;2023-04-21T00:09:01;20.30;;;17.13;;
28481;SDS011;15703;49.588;6.260;2023-04-21T00:11:25;21.83;;;17.53;;
28481;SDS011;15703;49.588;6.260;2023-04-21T00:13:48;21.93;;;16.90;;
28481;SDS011;15703;49.588;6.260;2023-04-21T00:16:10;19.63;;;16.90;;
28481;SDS011;15703;49.588;6.260;2023-04-21T00:18:33;20.63;;;17.20;;
28481;SDS011;15703;49.588;6.260;2023-04-21T00:20:55;18.13;;;15.73;;
28481;SDS011;15703;49.588;6.260;2023-04-21T00:23:17;18.77;;;16.37;;
28481;SDS011;15703;49.588;6.260;2023-04-21T00:25:39;19.17;;;16.67;;
28481;SDS011;15703;49.588;6.260;2023-04-21T00:28:02;17.53;;;14.67;;
28481;SDS011;15703;49.588;6.260;2023-04-21T00:30:24;17.93;;;16.03;;
28481;SDS011;15703;49.588;6.260;2023-04-21T00:32:46;17.07;;;15.27;;
28481;SDS011;15703;49.588;6.260;2023-04-21T00:35:09;18.63;;;15.13;;
28481;SDS011;15703;49.588;6.260;2023-04-21T00:37:32;17.63;;;15.20;;
28481;SDS011;15703;49.588;6.260;2023-04-21T00:39:54;17.23;;;15.00;;
28481;SDS011;15703;49.588;6.260;2023-04-21T00:42:17;16.10;;;14.23;;
28481;SDS011;15703;49.588;6.260;2023-04-21T00:44:39;17.23;;;15.07;;
28481;SDS011;15703;49.588;6.260;2023-04-21T00:47:01;17.30;;;14.57;;
28481;SDS011;15703;49.588;6.260;2023-04-21T00:49:23;18.97;;;15.47;;
28481;SDS011;15703;49.588;6.260;2023-04-21T00:51:46;19.70;;;17.03;;
28481;SDS011;15703;49.588;6.260;2023-04-21T00:54:08;18.60;;;15.67;;
28481;SDS011;15703;49.588;6.260;2023-04-21T00:56:32;19.87;;;16.13;;
28481;SDS011;15703;49.588;6.260;2023-04-21T00:58:55;17.47;;;15.57;;
28481;SDS011;15703;49.588;6.260;2023-04-21T01:01:18;17.30;;;14.77;;
28481;SDS011;15703;49.588;6.260;2023-04-21T01:03:41;16.30;;;14.67;;
28481;SDS011;15703;49.588;6.260;2023-04-21T01:06:03;18.03;;;15.00;;
28481;SDS011;15703;49.588;6.260;2023-04-21T01:08:25;18.73;;;15.00;;
28481;SDS011;15703;49.588;6.260;2023-04-21T01:10:48;16.23;;;14.37;;
28481;SDS011;15703;49.588;6.260;2023-04-21T01:13:10;21.13;;;17.33;;
28481;SDS011;15703;49.588;6.260;2023-04-21T01:15:32;19.97;;;16.63;;
28481;SDS011;15703;49.588;6.260;2023-04-21T01:17:55;23.53;;;17.53;;
28481;SDS011;15703;49.588;6.260;2023-04-21T01:20:17;20.17;;;17.03;;
28481;SDS011;15703;49.588;6.260;2023-04-21T01:22:40;20.73;;;17.73;;
28481;SDS011;15703;49.588;6.260;2023-04-21T01:25:02;21.00;;;16.73;;
28481;SDS011;15703;49.588;6.260;2023-04-21T01:27:25;24.57;;;18.70;;
28481;SDS011;15703;49.588;6.260;2023-04-21T01:29:49;20.57;;;17.87;;
28481;SDS011;15703;49.588;6.260;2023-04-21T01:32:13;18.43;;;16.37;;
28481;SDS011;15703;49.588;6.260;2023-04-21T01:34:36;17.77;;;14.43;;
28481;SDS011;15703;49.588;6.260;2023-04-21T01:36:58;19.07;;;15.53;;
28481;SDS011;15703;49.588;6.260;2023-04-21T01:39:20;17.00;;;14.67;;
28481;SDS011;15703;49.588;6.260;2023-04-21T01:41:44;17.43;;;14.90;;
28481;SDS011;15703;49.588;6.260;2023-04-21T01:44:07;20.30;;;16.47;;
28481;SDS011;15703;49.588;6.260;2023-04-21T01:46:30;20.77;;;16.97;;
28481;SDS011;15703;49.588;6.260;2023-04-21T01:48:52;16.47;;;14.67;;
28481;SDS011;15703;49.588;6.260;2023-04-21T01:51:14;17.10;;;14.57;;
28481;SDS011;15703;49.588;6.260;2023-04-21T01:53:37;16.43;;;14.47;;
28481;SDS011;15703;49.588;6.260;2023-04-21T01:55:59;20.77;;;16.83;;
28481;SDS011;15703;49.588;6.260;2023-04-21T01:58:24;21.20;;;16.77;;
28481;SDS011;15703;49.588;6.260;2023-04-21T02:00:46;21.63;;;16.90;;
28481;SDS011;15703;49.588;6.260;2023-04-21T02:03:08;17.03;;;14.37;;
28481;SDS011;15703;49.588;6.260;2023-04-21T02:05:31;16.83;;;14.20;;
28481;SDS011;15703;49.588;6.260;2023-04-21T02:07:54;15.77;;;13.70;;
28481;SDS011;15703;49.588;6.260;2023-04-21T02:10:16;23.57;;;16.90;;
28481;SDS011;15703;49.588;6.260;2023-04-21T02:12:39;20.37;;;15.77;;
28481;SDS011;15703;49.588;6.260;2023-04-21T02:15:03;19.50;;;16.50;;
28481;SDS011;15703;49.588;6.260;2023-04-21T02:17:25;22.17;;;17.57;;
28481;SDS011;15703;49.588;6.260;2023-04-21T02:19:50;23.37;;;17.97;;
28481;SDS011;15703;49.588;6.260;2023-04-21T02:22:14;22.50;;;16.47;;
28481;SDS011;15703;49.588;6.260;2023-04-21T02:24:37;20.43;;;16.37;;
28481;SDS011;15703;49.588;6.260;2023-04-21T02:26:59;20.47;;;16.40;;
28481;SDS011;15703;49.588;6.260;2023-04-21T02:29:22;22.10;;;18.47;;
28481;SDS011;15703;49.588;6.260;2023-04-21T02:31:44;21.57;;;17.30;;
28481;SDS011;15703;49.588;6.260;2023-04-21T02:34:21;26.13;;;19.67;;
28481;SDS011;15703;49.588;6.260;2023-04-21T02:36:43;22.90;;;18.53;;
28481;SDS011;15703;49.588;6.260;2023-04-21T02:39:06;23.83;;;18.00;;
28481;SDS011;15703;49.588;6.260;2023-04-21T02:41:28;21.10;;;16.73;;
28481;SDS011;15703;49.588;6.260;2023-04-21T02:43:50;23.87;;;19.40;;
28481;SDS011;15703;49.588;6.260;2023-04-21T02:46:15;75.17;;;22.87;;
28481;SDS011;15703;49.588;6.260;2023-04-21T02:48:37;52.93;;;20.57;;
28481;SDS011;15703;49.588;6.260;2023-04-21T02:51:00;28.17;;;18.17;;
28481;SDS011;15703;49.588;6.260;2023-04-21T02:53:22;21.57;;;17.13;;
28481;SDS011;15703;49.588;6.260;2023-04-21T02:55:45;24.77;;;17.67;;
28481;SDS011;15703;49.588;6.260;2023-04-21T02:58:08;31.67;;;18.20;;
28481;SDS011;15703;49.588;6.260;2023-04-21T03:00:30;32.43;;;18.40;;
28481;SDS011;15703;49.588;6.260;2023-04-21T03:02:53;27.37;;;16.43;;
28481;SDS011;15703;49.588;6.260;2023-04-21T03:05:15;20.03;;;15.87;;
28481;SDS011;15703;49.588;6.260;2023-04-21T03:07:37;19.57;;;15.87;;
28481;SDS011;15703;49.588;6.260;2023-04-21T03:10:00;23.23;;;17.80;;
28481;SDS011;15703;49.588;6.260;2023-04-21T03:12:23;54.27;;;27.30;;
28481;SDS011;15703;49.588;6.260;2023-04-21T03:14:45;39.90;;;27.80;;
28481;SDS011;15703;49.588;6.260;2023-04-21T03:17:07;33.10;;;20.67;;
28481;SDS011;15703;49.588;6.260;2023-04-21T03:19:30;24.23;;;18.70;;
28481;SDS011;15703;49.588;6.260;2023-04-21T03:21:53;27.83;;;19.17;;
28481;SDS011;15703;49.588;6.260;2023-04-21T03:24:15;22.57;;;17.37;;
28481;SDS011;15703;49.588;6.260;2023-04-21T03:26:38;29.43;;;16.07;;
28481;SDS011;15703;49.588;6.260;2023-04-21T03:29:03;35.23;;;18.60;;
28481;SDS011;15703;49.588;6.260;2023-04-21T03:31:25;55.27;;;18.50;;
28481;SDS011;15703;49.588;6.260;2023-04-21T03:33:48;63.70;;;21.20;;
28481;SDS011;15703;49.588;6.260;2023-04-21T03:36:10;25.87;;;16.33;;
28481;SDS011;15703;49.588;6.260;2023-04-21T03:38:33;76.17;;;20.30;;
28481;SDS011;15703;49.588;6.260;2023-04-21T03:40:55;69.33;;;21.37;;
28481;SDS011;15703;49.588;6.260;2023-04-21T03:43:18;118.30;;;20.30;;
28481;SDS011;15703;49.588;6.260;2023-04-21T03:45:40;62.27;;;17.77;;
28481;SDS011;15703;49.588;6.260;2023-04-21T03:48:02;32.10;;;17.07;;
28481;SDS011;15703;49.588;6.260;2023-04-21T03:50:25;22.73;;;16.67;;
28481;SDS011;15703;49.588;6.260;2023-04-21T03:52:47;18.37;;;15.37;;
28481;SDS011;15703;49.588;6.260;2023-04-21T03:55:10;19.20;;;15.40;;
28481;SDS011;15703;49.588;6.260;2023-04-21T03:57:32;19.90;;;15.17;;
28481;SDS011;15703;49.588;6.260;2023-04-21T03:59:54;19.30;;;14.47;;
28481;SDS011;15703;49.588;6.260;2023-04-21T04:02:17;18.30;;;14.57;;
28481;SDS011;15703;49.588;6.260;2023-04-21T04:04:40;26.57;;;15.83;;
28481;SDS011;15703;49.588;6.260;2023-04-21T04:07:02;27.37;;;16.23;;
28481;SDS011;15703;49.588;6.260;2023-04-21T04:09:25;40.17;;;18.67;;
28481;SDS011;15703;49.588;6.260;2023-04-21T04:11:47;32.13;;;16.13;;
28481;SDS011;15703;49.588;6.260;2023-04-21T04:14:10;69.83;;;21.00;;
28481;SDS011;15703;49.588;6.260;2023-04-21T04:16:35;24.07;;;18.70;;
28481;SDS011;15703;49.588;6.260;2023-04-21T04:18:57;32.53;;;18.83;;
28481;SDS011;15703;49.588;6.260;2023-04-21T04:21:19;25.70;;;18.43;;
28481;SDS011;15703;49.588;6.260;2023-04-21T04:23:42;25.57;;;17.63;;
28481;SDS011;15703;49.588;6.260;2023-04-21T04:26:04;35.57;;;19.10;;
28481;SDS011;15703;49.588;6.260;2023-04-21T04:28:27;25.50;;;18.43;;
28481;SDS011;15703;49.588;6.260;2023-04-21T04:30:50;23.57;;;17.90;;
28481;SDS011;15703;49.588;6.260;2023-04-21T04:33:13;24.47;;;16.63;;
28481;SDS011;15703;49.588;6.260;2023-04-21T04:35:35;19.67;;;16.40;;
28481;SDS011;15703;49.588;6.260;2023-04-21T04:37:58;31.27;;;19.07;;
28481;SDS011;15703;49.588;6.260;2023-04-21T04:40:20;22.77;;;16.70;;
28481;SDS011;15703;49.588;6.260;2023-04-21T04:42:42;19.33;;;16.17;;
28481;SDS011;15703;49.588;6.260;2023-04-21T04:45:07;29.27;;;17.43;;
28481;SDS011;15703;49.588;6.260;2023-04-21T04:47:29;18.97;;;15.63;;
28481;SDS011;15703;49.588;6.260;2023-04-21T04:49:52;19.97;;;16.30;;
28481;SDS011;15703;49.588;6.260;2023-04-21T04:52:14;20.20;;;15.77;;
28481;SDS011;15703;49.588;6.260;2023-04-21T04:54:36;20.47;;;15.70;;
28481;SDS011;15703;49.588;6.260;2023-04-21T04:56:58;25.07;;;17.27;;
28481;SDS011;15703;49.588;6.260;2023-04-21T04:59:21;22.10;;;16.43;;
28481;SDS011;15703;49.588;6.260;2023-04-21T05:01:43;23.17;;;16.70;;
28481;SDS011;15703;49.588;6.260;2023-04-21T05:04:06;21.27;;;16.57;;
28481;SDS011;15703;49.588;6.260;2023-04-21T05:06:29;22.57;;;17.87;;
28481;SDS011;15703;49.588;6.260;2023-04-21T05:08:52;25.77;;;18.33;;
28481;SDS011;15703;49.588;6.260;2023-04-21T05:11:14;38.87;;;18.67;;
28481;SDS011;15703;49.588;6.260;2023-04-21T05:13:37;24.47;;;18.80;;
28481;SDS011;15703;49.588;6.260;2023-04-21T05:16:00;23.93;;;17.83;;
28481;SDS011;15703;49.588;6.260;2023-04-21T05:18:22;23.73;;;18.30;;
28481;SDS011;15703;49.588;6.260;2023-04-21T05:20:45;24.10;;;17.10;;
28481;SDS011;15703;49.588;6.260;2023-04-21T05:23:07;22.97;;;18.37;;
28481;SDS011;15703;49.588;6.260;2023-04-21T05:25:29;24.57;;;19.23;;
28481;SDS011;15703;49.588;6.260;2023-04-21T05:27:52;27.07;;;19.97;;
28481;SDS011;15703;49.588;6.260;2023-04-21T05:30:14;26.27;;;18.87;;
28481;SDS011;15703;49.588;6.260;2023-04-21T05:32:36;25.90;;;19.07;;
28481;SDS011;15703;49.588;6.260;2023-04-21T05:34:59;28.80;;;19.87;;
28481;SDS011;15703;49.588;6.260;2023-04-21T05:37:21;27.30;;;20.13;;
28481;SDS011;15703;49.588;6.260;2023-04-21T05:39:44;28.00;;;19.93;;
28481;SDS011;15703;49.588;6.260;2023-04-21T05:42:08;26.40;;;19.60;;
28481;SDS011;15703;49.588;6.260;2023-04-21T05:44:31;28.87;;;20.87;;
28481;SDS011;15703;49.588;6.260;2023-04-21T05:46:53;25.60;;;19.83;;
28481;SDS011;15703;49.588;6.260;2023-04-21T05:49:16;25.67;;;19.40;;
28481;SDS011;15703;49.588;6.260;2023-04-21T05:51:38;28.63;;;20.20;;
28481;SDS011;15703;49.588;6.260;2023-04-21T05:54:00;28.10;;;19.93;;
28481;SDS011;15703;49.588;6.260;2023-04-21T05:56:22;26.90;;;20.40;;
28481;SDS011;15703;49.588;6.260;2023-04-21T05:58:45;28.10;;;20.17;;
28481;SDS011;15703;49.588;6.260;2023-04-21T06:01:07;25.17;;;18.83;;
28481;SDS011;15703;49.588;6.260;2023-04-21T06:03:30;23.73;;;18.30;;
28481;SDS011;15703;49.588;6.260;2023-04-21T06:05:56;21.80;;;17.10;;
28481;SDS011;15703;49.588;6.260;2023-04-21T06:08:18;22.50;;;16.47;;
28481;SDS011;15703;49.588;6.260;2023-04-21T06:10:41;18.60;;;15.93;;
28481;SDS011;15703;49.588;6.260;2023-04-21T06:13:03;18.03;;;14.37;;
28481;SDS011;15703;49.588;6.260;2023-04-21T06:15:25;15.47;;;13.40;;
28481;SDS011;15703;49.588;6.260;2023-04-21T06:17:51;13.23;;;11.90;;
28481;SDS011;15703;49.588;6.260;2023-04-21T06:20:15;12.53;;;11.23;;
28481;SDS011;15703;49.588;6.260;2023-04-21T06:22:38;12.27;;;11.00;;
28481;SDS011;15703;49.588;6.260;2023-04-21T06:25:01;12.43;;;11.17;;
28481;SDS011;15703;49.588;6.260;2023-04-21T06:27:23;11.53;;;10.43;;
28481;SDS011;15703;49.588;6.260;2023-04-21T06:29:48;12.23;;;11.03;;
28481;SDS011;15703;49.588;6.260;2023-04-21T06:32:16;10.93;;;9.63;;
28481;SDS011;15703;49.588;6.260;2023-04-21T06:34:38;11.77;;;9.37;;
28481;SDS011;15703;49.588;6.260;2023-04-21T06:37:01;11.27;;;10.17;;
28481;SDS011;15703;49.588;6.260;2023-04-21T06:39:23;11.18;;;10.07;;
28481;SDS011;15703;49.588;6.260;2023-04-21T06:41:48;11.00;;;9.52;;
28481;SDS011;15703;49.588;6.260;2023-04-21T06:44:11;10.65;;;9.63;;
28481;SDS011;15703;49.588;6.260;2023-04-21T06:46:34;10.00;;;9.07;;
28481;SDS011;15703;49.588;6.260;2023-04-21T06:48:57;10.57;;;9.60;;
28481;SDS011;15703;49.588;6.260;2023-04-21T06:51:19;10.00;;;9.10;;
28481;SDS011;15703;49.588;6.260;2023-04-21T06:53:42;10.73;;;9.73;;
28481;SDS011;15703;49.588;6.260;2023-04-21T06:56:06;9.53;;;8.63;;
28481;SDS011;15703;49.588;6.260;2023-04-21T06:58:29;12.17;;;9.93;;
28481;SDS011;15703;49.588;6.260;2023-04-21T07:00:51;10.43;;;9.40;;
28481;SDS011;15703;49.588;6.260;2023-04-21T07:03:14;9.83;;;8.93;;
28481;SDS011;15703;49.588;6.260;2023-04-21T07:05:36;10.30;;;9.30;;
28481;SDS011;15703;49.588;6.260;2023-04-21T07:07:58;9.97;;;9.07;;
28481;SDS011;15703;49.588;6.260;2023-04-21T07:10:21;10.63;;;9.53;;
28481;SDS011;15703;49.588;6.260;2023-04-21T07:12:45;9.83;;;8.83;;
28481;SDS011;15703;49.588;6.260;2023-04-21T07:15:08;10.70;;;8.90;;
28481;SDS011;15703;49.588;6.260;2023-04-21T07:17:30;9.30;;;8.40;;
28481;SDS011;15703;49.588;6.260;2023-04-21T07:19:53;8.60;;;7.70;;
28481;SDS011;15703;49.588;6.260;2023-04-21T07:22:15;8.70;;;7.67;;
28481;SDS011;15703;49.588;6.260;2023-04-21T07:24:37;8.20;;;7.40;;
28481;SDS011;15703;49.588;6.260;2023-04-21T07:27:00;7.90;;;7.20;;
28481;SDS011;15703;49.588;6.260;2023-04-21T07:29:25;7.90;;;7.10;;
28481;SDS011;15703;49.588;6.260;2023-04-21T07:31:47;7.03;;;6.43;;
28481;SDS011;15703;49.588;6.260;2023-04-21T07:34:10;7.27;;;6.57;;
28481;SDS011;15703;49.588;6.260;2023-04-21T07:36:35;6.87;;;6.27;;
28481;SDS011;15703;49.588;6.260;2023-04-21T07:38:58;6.97;;;6.30;;
28481;SDS011;15703;49.588;6.260;2023-04-21T07:41:24;7.60;;;6.43;;
28481;SDS011;15703;49.588;6.260;2023-04-21T07:43:47;7.83;;;7.03;;
28481;SDS011;15703;49.588;6.260;2023-04-21T07:46:10;7.67;;;6.97;;
28481;SDS011;15703;49.588;6.260;2023-04-21T07:48:33;6.90;;;6.27;;
28481;SDS011;15703;49.588;6.260;2023-04-21T07:50:56;8.97;;;6.60;;
28481;SDS011;15703;49.588;6.260;2023-04-21T07:53:23;6.60;;;6.00;;
28481;SDS011;15703;49.588;6.260;2023-04-21T07:55:45;7.20;;;6.50;;
28481;SDS011;15703;49.588;6.260;2023-04-21T07:58:08;6.80;;;6.10;;
28481;SDS011;15703;49.588;6.260;2023-04-21T08:00:30;7.07;;;6.47;;
28481;SDS011;15703;49.588;6.260;2023-04-21T08:02:53;6.50;;;5.83;;
28481;SDS011;15703;49.588;6.260;2023-04-21T08:05:15;7.50;;;6.80;;
28481;SDS011;15703;49.588;6.260;2023-04-21T08:07:38;6.13;;;5.53;;
28481;SDS011;15703;49.588;6.260;2023-04-21T08:10:00;7.97;;;6.20;;
28481;SDS011;15703;49.588;6.260;2023-04-21T08:12:23;6.07;;;5.57;;
28481;SDS011;15703;49.588;6.260;2023-04-21T08:14:45;6.47;;;5.87;;
28481;SDS011;15703;49.588;6.260;2023-04-21T08:17:08;6.47;;;5.87;;
28481;SDS011;15703;49.588;6.260;2023-04-21T08:19:31;7.27;;;5.90;;
28481;SDS011;15703;49.588;6.260;2023-04-21T08:21:53;6.20;;;5.60;;
28481;SDS011;15703;49.588;6.260;2023-04-21T08:24:17;6.57;;;5.63;;
28481;SDS011;15703;49.588;6.260;2023-04-21T08:26:40;5.90;;;5.40;;
28481;SDS011;15703;49.588;6.260;2023-04-21T08:29:02;5.83;;;5.23;;
28481;SDS011;15703;49.588;6.260;2023-04-21T08:31:27;6.17;;;4.57;;
28481;SDS011;15703;49.588;6.260;2023-04-21T08:33:50;7.47;;;5.20;;
28481;SDS011;15703;49.588;6.260;2023-04-21T08:36:22;5.40;;;4.90;;
28481;SDS011;15703;49.588;6.260;2023-04-21T08:38:50;5.40;;;4.90;;
28481;SDS011;15703;49.588;6.260;2023-04-21T08:41:12;5.83;;;5.33;;
28481;SDS011;15703;49.588;6.260;2023-04-21T08:43:34;6.30;;;5.80;;
28481;SDS011;15703;49.588;6.260;2023-04-21T08:45:57;5.87;;;5.33;;
28481;SDS011;15703;49.588;6.260;2023-04-21T08:48:21;5.50;;;4.87;;
28481;SDS011;15703;49.588;6.260;2023-04-21T08:50:44;5.50;;;5.00;;
28481;SDS011;15703;49.588;6.260;2023-04-21T08:53:07;5.27;;;4.77;;
28481;SDS011;15703;49.588;6.260;2023-04-21T08:55:30;5.60;;;5.10;;
28481;SDS011;15703;49.588;6.260;2023-04-21T08:57:53;5.07;;;3.53;;
28481;SDS011;15703;49.588;6.260;2023-04-21T09:00:16;4.07;;;3.70;;
28481;SDS011;15703;49.588;6.260;2023-04-21T09:05:23;4.70;;;3.87;;
28481;SDS011;15703;49.588;6.260;2023-04-21T09:07:46;5.17;;;3.73;;
28481;SDS011;15703;49.588;6.260;2023-04-21T09:10:08;6.03;;;3.75;;
28481;SDS011;15703;49.588;6.260;2023-04-21T09:12:31;4.27;;;3.93;;
28481;SDS011;15703;49.588;6.260;2023-04-21T09:14:53;4.43;;;3.33;;
28481;SDS011;15703;49.588;6.260;2023-04-21T09:17:16;3.20;;;3.00;;
28481;SDS011;15703;49.588;6.260;2023-04-21T09:19:41;3.40;;;3.10;;
28481;SDS011;15703;49.588;6.260;2023-04-21T09:22:04;3.63;;;3.33;;
28481;SDS011;15703;49.588;6.260;2023-04-21T09:24:29;3.25;;;2.95;;
28481;SDS011;15703;49.588;6.260;2023-04-21T09:27:14;4.85;;;3.25;;
28481;SDS011;15703;49.588;6.260;2023-04-21T09:29:37;3.90;;;3.42;;
28481;SDS011;15703;49.588;6.260;2023-04-21T09:32:00;3.83;;;3.45;;
28481;SDS011;15703;49.588;6.260;2023-04-21T09:34:25;4.38;;;2.97;;
28481;SDS011;15703;49.588;6.260;2023-04-21T09:36:48;3.97;;;3.58;;
28481;SDS011;15703;49.588;6.260;2023-04-21T09:39:11;4.32;;;3.58;;
28481;SDS011;15703;49.588;6.260;2023-04-21T09:41:54;3.90;;;3.60;;
28481;SDS011;15703;49.588;6.260;2023-04-21T09:44:17;3.55;;;3.25;;
28481;SDS011;15703;49.588;6.260;2023-04-21T09:46:42;3.50;;;3.20;;
28481;SDS011;15703;49.588;6.260;2023-04-21T09:49:12;3.80;;;3.50;;
28481;SDS011;15703;49.588;6.260;2023-04-21T09:51:36;3.47;;;3.17;;
28481;SDS011;15703;49.588;6.260;2023-04-21T09:54:42;3.88;;;3.45;;
28481;SDS011;15703;49.588;6.260;2023-04-21T09:57:20;3.75;;;3.42;;
28481;SDS011;15703;49.588;6.260;2023-04-21T10:00:05;4.32;;;3.70;;
28481;SDS011;15703;49.588;6.260;2023-04-21T10:02:32;3.97;;;3.40;;
28481;SDS011;15703;49.588;6.260;2023-04-21T10:04:56;4.20;;;3.55;;
28481;SDS011;15703;49.588;6.260;2023-04-21T10:07:30;3.38;;;3.08;;
28481;SDS011;15703;49.588;6.260;2023-04-21T10:09:55;4.18;;;2.70;;
28481;SDS011;15703;49.588;6.260;2023-04-21T10:12:23;3.47;;;2.67;;
28481;SDS011;15703;49.588;6.260;2023-04-21T10:14:49;2.42;;;2.22;;
28481;SDS011;15703;49.588;6.260;2023-04-21T10:17:13;3.13;;;2.75;;
28481;SDS011;15703;49.588;6.260;2023-04-21T10:20:07;3.35;;;3.00;;
28481;SDS011;15703;49.588;6.260;2023-04-21T10:22:36;3.80;;;3.50;;
28481;SDS011;15703;49.588;6.260;2023-04-21T10:25:00;3.30;;;2.97;;
28481;SDS011;15703;49.588;6.260;2023-04-21T10:27:38;4.20;;;3.80;;
28481;SDS011;15703;49.588;6.260;2023-04-21T10:30:07;3.88;;;3.58;;
28481;SDS011;15703;49.588;6.260;2023-04-21T10:35:01;2.92;;;2.60;;
28481;SDS011;15703;49.588;6.260;2023-04-21T10:37:24;4.55;;;2.95;;
28481;SDS011;15703;49.588;6.260;2023-04-21T10:39:53;2.83;;;2.53;;
28481;SDS011;15703;49.588;6.260;2023-04-21T10:42:32;2.65;;;2.30;;
28481;SDS011;15703;49.588;6.260;2023-04-21T10:45:04;2.78;;;2.55;;
28481;SDS011;15703;49.588;6.260;2023-04-21T10:47:52;2.88;;;2.65;;
28481;SDS011;15703;49.588;6.260;2023-04-21T10:50:16;3.28;;;2.97;;
28481;SDS011;15703;49.588;6.260;2023-04-21T11:00:16;3.92;;;2.83;;
28481;SDS011;15703;49.588;6.260;2023-04-21T11:02:39;2.55;;;2.33;;
28481;SDS011;15703;49.588;6.260;2023-04-21T11:05:27;2.97;;;2.70;;
28481;SDS011;15703;49.588;6.260;2023-04-21T11:11:20;3.95;;;1.80;;
28481;SDS011;15703;49.588;6.260;2023-04-21T11:13:51;2.45;;;2.25;;
28481;SDS011;15703;49.588;6.260;2023-04-21T11:16:14;3.90;;;2.33;;
28481;SDS011;15703;49.588;6.260;2023-04-21T11:18:38;4.80;;;3.40;;
28481;SDS011;15703;49.588;6.260;2023-04-21T11:21:08;3.20;;;2.75;;
28481;SDS011;15703;49.588;6.260;2023-04-21T11:23:31;2.85;;;2.63;;
28481;SDS011;15703;49.588;6.260;2023-04-21T11:25:55;3.10;;;2.78;;
28481;SDS011;15703;49.588;6.260;2023-04-21T11:28:20;4.18;;;2.83;;
28481;SDS011;15703;49.588;6.260;2023-04-21T11:57:17;3.72;;;3.38;;
28481;SDS011;15703;49.588;6.260;2023-04-21T11:59:44;5.50;;;3.03;;
28481;SDS011;15703;49.588;6.260;2023-04-21T12:02:11;3.78;;;3.10;;
28481;SDS011;15703;49.588;6.260;2023-04-21T12:04:43;3.47;;;3.17;;
28481;SDS011;15703;49.588;6.260;2023-04-21T12:07:32;4.00;;;3.63;;
28481;SDS011;15703;49.588;6.260;2023-04-21T12:10:09;4.07;;;3.22;;
28481;SDS011;15703;49.588;6.260;2023-04-21T12:20:47;3.72;;;3.42;;
28481;SDS011;15703;49.588;6.260;2023-04-21T12:23:11;4.75;;;3.35;;
28481;SDS011;15703;49.588;6.260;2023-04-21T12:29:05;3.83;;;3.30;;
28481;SDS011;15703;49.588;6.260;2023-04-21T12:31:28;3.88;;;3.47;;
28481;SDS011;15703;49.588;6.260;2023-04-21T12:33:53;4.65;;;3.72;;
28481;SDS011;15703;49.588;6.260;2023-04-21T12:36:15;3.65;;;3.30;;
28481;SDS011;15703;49.588;6.260;2023-04-21T12:41:11;6.38;;;4.68;;
28481;SDS011;15703;49.588;6.260;2023-04-21T12:43:34;4.70;;;4.18;;
28481;SDS011;15703;49.588;6.260;2023-04-21T12:52:37;5.20;;;4.70;;
28481;SDS011;15703;49.588;6.260;2023-04-21T13:01:11;4.30;;;3.90;;
28481;SDS011;15703;49.588;6.260;2023-04-21T13:03:36;4.28;;;3.75;;
28481;SDS011;15703;49.588;6.260;2023-04-21T13:06:01;5.70;;;3.75;;
28481;SDS011;15703;49.588;6.260;2023-04-21T13:08:38;3.13;;;2.90;;
28481;SDS011;15703;49.588;6.260;2023-04-21T13:14:09;3.67;;;3.30;;
28481;SDS011;15703;49.588;6.260;2023-04-21T13:19:10;3.20;;;2.13;;
28481;SDS011;15703;49.588;6.260;2023-04-21T13:21:33;3.38;;;2.22;;
28481;SDS011;15703;49.588;6.260;2023-04-21T13:23:56;2.13;;;1.70;;
28481;SDS011;15703;49.588;6.260;2023-04-21T13:26:48;1.17;;;1.13;;
28481;SDS011;15703;49.588;6.260;2023-04-21T13:29:24;1.52;;;1.42;;
28481;SDS011;15703;49.588;6.260;2023-04-21T13:31:50;1.65;;;1.50;;
28481;SDS011;15703;49.588;6.260;2023-04-21T13:34:13;2.70;;;1.70;;
28481;SDS011;15703;49.588;6.260;2023-04-21T13:40:56;4.75;;;1.88;;
28481;SDS011;15703;49.588;6.260;2023-04-21T13:43:20;2.28;;;1.52;;
28481;SDS011;15703;49.588;6.260;2023-04-21T13:46:44;3.78;;;1.88;;
28481;SDS011;15703;49.588;6.260;2023-04-21T13:49:09;3.20;;;1.35;;
28481;SDS011;15703;49.588;6.260;2023-04-21T13:51:31;1.73;;;1.52;;
28481;SDS011;15703;49.588;6.260;2023-04-21T14:01:41;1.85;;;1.60;;
28481;SDS011;15703;49.588;6.260;2023-04-21T14:04:03;1.50;;;1.40;;
28481;SDS011;15703;49.588;6.260;2023-04-21T14:06:29;2.08;;;1.88;;
28481;SDS011;15703;49.588;6.260;2023-04-21T14:08:55;2.17;;;1.55;;
28481;SDS011;15703;49.588;6.260;2023-04-21T14:11:22;1.20;;;1.10;;
28481;SDS011;15703;49.588;6.260;2023-04-21T14:16:51;1.00;;;1.00;;
28481;SDS011;15703;49.588;6.260;2023-04-21T14:19:16;1.50;;;1.08;;
28481;SDS011;15703;49.588;6.260;2023-04-21T14:25:16;1.50;;;1.10;;
28481;SDS011;15703;49.588;6.260;2023-04-21T14:30:46;2.42;;;1.00;;
28481;SDS011;15703;49.588;6.260;2023-04-21T14:33:23;2.63;;;1.00;;
28481;SDS011;15703;49.588;6.260;2023-04-21T14:38:34;0.93;;;0.93;;
28481;SDS011;15703;49.588;6.260;2023-04-21T14:41:36;1.60;;;0.70;;
28481;SDS011;15703;49.588;6.260;2023-04-21T14:43:58;2.03;;;1.00;;
28481;SDS011;15703;49.588;6.260;2023-04-21T14:46:27;0.90;;;0.90;;
28481;SDS011;15703;49.588;6.260;2023-04-21T14:48:50;0.95;;;0.95;;
28481;SDS011;15703;49.588;6.260;2023-04-21T14:51:22;0.90;;;0.90;;
28481;SDS011;15703;49.588;6.260;2023-04-21T14:53:44;2.05;;;0.88;;
28481;SDS011;15703;49.588;6.260;2023-04-21T14:56:15;1.98;;;1.20;;
28481;SDS011;15703;49.588;6.260;2023-04-21T14:58:39;0.95;;;0.95;;
28481;SDS011;15703;49.588;6.260;2023-04-21T15:01:06;2.78;;;1.23;;
28481;SDS011;15703;49.588;6.260;2023-04-21T15:03:28;1.10;;;1.00;;
28481;SDS011;15703;49.588;6.260;2023-04-21T15:06:12;1.20;;;1.10;;
28481;SDS011;15703;49.588;6.260;2023-04-21T15:08:36;0.95;;;0.95;;
28481;SDS011;15703;49.588;6.260;2023-04-21T15:11:06;2.80;;;1.08;;
28481;SDS011;15703;49.588;6.260;2023-04-21T15:13:32;1.08;;;0.90;;
28481;SDS011;15703;49.588;6.260;2023-04-21T15:15:55;1.05;;;1.00;;
28481;SDS011;15703;49.588;6.260;2023-04-21T15:18:17;1.50;;;1.20;;
28481;SDS011;15703;49.588;6.260;2023-04-21T15:20:56;1.20;;;1.08;;
28481;SDS011;15703;49.588;6.260;2023-04-21T15:23:24;0.80;;;0.80;;
28481;SDS011;15703;49.588;6.260;2023-04-21T15:25:48;1.38;;;1.08;;
28481;SDS011;15703;49.588;6.260;2023-04-21T15:28:10;1.00;;;0.85;;
28481;SDS011;15703;49.588;6.260;2023-04-21T15:30:42;1.27;;;1.13;;
28481;SDS011;15703;49.588;6.260;2023-04-21T15:33:05;1.88;;;0.73;;
28481;SDS011;15703;49.588;6.260;2023-04-21T15:35:27;1.42;;;0.85;;
28481;SDS011;15703;49.588;6.260;2023-04-21T15:37:49;0.60;;;0.60;;
28481;SDS011;15703;49.588;6.260;2023-04-21T15:40:15;4.13;;;0.90;;
28481;SDS011;15703;49.588;6.260;2023-04-21T15:42:38;0.75;;;0.73;;
28481;SDS011;15703;49.588;6.260;2023-04-21T15:45:39;1.33;;;0.90;;
28481;SDS011;15703;49.588;6.260;2023-04-21T15:48:02;1.83;;;0.93;;
28481;SDS011;15703;49.588;6.260;2023-04-21T15:50:25;0.90;;;0.90;;
28481;SDS011;15703;49.588;6.260;2023-04-21T15:52:51;1.48;;;1.00;;
28481;SDS011;15703;49.588;6.260;2023-04-21T15:55:21;2.28;;;0.75;;
28481;SDS011;15703;49.588;6.260;2023-04-21T15:57:44;0.95;;;0.95;;
28481;SDS011;15703;49.588;6.260;2023-04-21T16:00:13;0.93;;;0.93;;
28481;SDS011;15703;49.588;6.260;2023-04-21T16:02:39;1.88;;;0.95;;